sensor_id;sensor_type;location;lat;lon;timestamp;P1;durP1;ratioP1;P2;durP2;ratioP2
68196;SDS011;55019;49.382;11.358;2023-03-23T00:02:25;2.90;;;1.33;;
68196;SDS011;55019;49.382;11.358;2023-03-23T00:04:58;2.08;;;1.00;;
68196;SDS011;55019;49.382;11.358;2023-03-23T00:07:25;4.40;;;1.60;;
68196;SDS011;55019;49.382;11.358;2023-03-23T00:09:53;2.40;;;1.42;;
68196;SDS011;55019;49.382;11.358;2023-03-23T00:12:20;2.35;;;1.23;;
68196;SDS011;55019;49.382;11.358;2023-03-23T00:14:58;2.80;;;1.23;;
68196;SDS011;55019;49.382;11.358;2023-03-23T00:17:28;2.42;;;1.00;;
68196;SDS011;55019;49.382;11.358;2023-03-23T00:19:55;2.78;;;1.45;;
68196;SDS011;55019;49.382;11.358;2023-03-23T00:22:21;3.75;;;1.27;;
68196;SDS011;55019;49.382;11.358;2023-03-23T00:24:47;2.40;;;1.35;;
68196;SDS011;55019;49.382;11.358;2023-03-23T00:27:15;2.03;;;1.40;;
68196;SDS011;55019;49.382;11.358;2023-03-23T00:29:41;2.28;;;1.15;;
68196;SDS011;55019;49.382;11.358;2023-03-23T00:32:10;3.15;;;1.40;;
68196;SDS011;55019;49.382;11.358;2023-03-23T00:34:41;1.60;;;1.15;;
68196;SDS011;55019;49.382;11.358;2023-03-23T00:37:09;2.47;;;1.40;;
68196;SDS011;55019;49.382;11.358;2023-03-23T00:39:35;2.10;;;1.30;;
68196;SDS011;55019;49.382;11.358;2023-03-23T00:42:03;2.75;;;1.58;;
68196;SDS011;55019;49.382;11.358;2023-03-23T00:44:31;3.47;;;1.33;;
68196;SDS011;55019;49.382;11.358;2023-03-23T00:47:00;3.00;;;1.33;;
68196;SDS011;55019;49.382;11.358;2023-03-23T00:49:27;2.50;;;1.25;;
68196;SDS011;55019;49.382;11.358;2023-03-23T00:51:54;3.17;;;1.10;;
68196;SDS011;55019;49.382;11.358;2023-03-23T00:54:23;2.33;;;1.40;;
68196;SDS011;55019;49.382;11.358;2023-03-23T00:56:49;2.00;;;1.52;;
68196;SDS011;55019;49.382;11.358;2023-03-23T00:59:16;1.63;;;1.10;;
68196;SDS011;55019;49.382;11.358;2023-03-23T01:01:43;1.67;;;1.30;;
68196;SDS011;55019;49.382;11.358;2023-03-23T01:04:09;2.63;;;1.40;;
68196;SDS011;55019;49.382;11.358;2023-03-23T01:06:38;4.78;;;1.50;;
68196;SDS011;55019;49.382;11.358;2023-03-23T01:09:06;5.80;;;1.67;;
68196;SDS011;55019;49.382;11.358;2023-03-23T01:11:33;2.38;;;1.38;;
68196;SDS011;55019;49.382;11.358;2023-03-23T01:13:59;3.38;;;1.60;;
68196;SDS011;55019;49.382;11.358;2023-03-23T01:16:25;2.67;;;1.40;;
68196;SDS011;55019;49.382;11.358;2023-03-23T01:18:51;2.67;;;1.70;;
68196;SDS011;55019;49.382;11.358;2023-03-23T01:21:18;2.67;;;1.52;;
68196;SDS011;55019;49.382;11.358;2023-03-23T01:23:44;1.67;;;0.98;;
68196;SDS011;55019;49.382;11.358;2023-03-23T01:26:11;2.00;;;1.02;;
68196;SDS011;55019;49.382;11.358;2023-03-23T01:28:40;2.13;;;1.25;;
68196;SDS011;55019;49.382;11.358;2023-03-23T01:31:08;1.15;;;0.80;;
68196;SDS011;55019;49.382;11.358;2023-03-23T01:33:37;1.58;;;1.00;;
68196;SDS011;55019;49.382;11.358;2023-03-23T01:36:05;2.78;;;1.10;;
68196;SDS011;55019;49.382;11.358;2023-03-23T01:38:33;1.63;;;1.05;;
68196;SDS011;55019;49.382;11.358;2023-03-23T01:41:00;2.45;;;0.80;;
68196;SDS011;55019;49.382;11.358;2023-03-23T01:43:27;1.05;;;0.80;;
68196;SDS011;55019;49.382;11.358;2023-03-23T01:45:53;1.90;;;0.70;;
68196;SDS011;55019;49.382;11.358;2023-03-23T01:48:23;1.27;;;0.80;;
68196;SDS011;55019;49.382;11.358;2023-03-23T01:50:56;1.60;;;0.80;;
68196;SDS011;55019;49.382;11.358;2023-03-23T01:53:37;1.20;;;0.80;;
68196;SDS011;55019;49.382;11.358;2023-03-23T01:56:06;1.77;;;0.80;;
68196;SDS011;55019;49.382;11.358;2023-03-23T01:58:33;1.30;;;0.80;;
68196;SDS011;55019;49.382;11.358;2023-03-23T02:01:03;1.02;;;0.70;;
68196;SDS011;55019;49.382;11.358;2023-03-23T02:03:33;1.00;;;0.90;;
68196;SDS011;55019;49.382;11.358;2023-03-23T02:06:01;1.23;;;0.70;;
68196;SDS011;55019;49.382;11.358;2023-03-23T02:08:35;1.42;;;0.75;;
68196;SDS011;55019;49.382;11.358;2023-03-23T02:11:08;1.33;;;0.77;;
68196;SDS011;55019;49.382;11.358;2023-03-23T02:13:37;1.05;;;0.70;;
68196;SDS011;55019;49.382;11.358;2023-03-23T02:18:58;1.23;;;0.60;;
68196;SDS011;55019;49.382;11.358;2023-03-23T02:22:01;1.33;;;0.63;;
68196;SDS011;55019;49.382;11.358;2023-03-23T02:27:29;0.60;;;0.50;;
68196;SDS011;55019;49.382;11.358;2023-03-23T02:35:39;1.00;;;0.50;;
68196;SDS011;55019;49.382;11.358;2023-03-23T02:38:15;1.10;;;0.50;;
68196;SDS011;55019;49.382;11.358;2023-03-23T02:40:47;2.25;;;0.70;;
68196;SDS011;55019;49.382;11.358;2023-03-23T02:43:20;0.70;;;0.70;;
68196;SDS011;55019;49.382;11.358;2023-03-23T02:45:50;2.00;;;0.80;;
68196;SDS011;55019;49.382;11.358;2023-03-23T02:48:18;1.00;;;0.55;;
68196;SDS011;55019;49.382;11.358;2023-03-23T02:50:49;0.70;;;0.70;;
68196;SDS011;55019;49.382;11.358;2023-03-23T02:53:18;1.13;;;0.52;;
68196;SDS011;55019;49.382;11.358;2023-03-23T02:55:50;1.00;;;0.70;;
68196;SDS011;55019;49.382;11.358;2023-03-23T02:58:21;1.23;;;0.80;;
68196;SDS011;55019;49.382;11.358;2023-03-23T03:00:50;0.65;;;0.65;;
68196;SDS011;55019;49.382;11.358;2023-03-23T03:03:20;1.30;;;0.60;;
68196;SDS011;55019;49.382;11.358;2023-03-23T03:08:58;1.27;;;0.50;;
68196;SDS011;55019;49.382;11.358;2023-03-23T03:11:32;1.50;;;0.55;;
68196;SDS011;55019;49.382;11.358;2023-03-23T03:17:00;1.25;;;0.68;;
68196;SDS011;55019;49.382;11.358;2023-03-23T03:19:42;1.52;;;0.57;;
68196;SDS011;55019;49.382;11.358;2023-03-23T03:24:40;1.52;;;0.63;;
68196;SDS011;55019;49.382;11.358;2023-03-23T03:27:13;1.30;;;0.77;;
68196;SDS011;55019;49.382;11.358;2023-03-23T03:29:45;1.02;;;0.63;;
68196;SDS011;55019;49.382;11.358;2023-03-23T03:32:17;1.15;;;0.60;;
68196;SDS011;55019;49.382;11.358;2023-03-23T03:34:48;0.85;;;0.80;;
68196;SDS011;55019;49.382;11.358;2023-03-23T03:37:17;1.10;;;0.80;;
68196;SDS011;55019;49.382;11.358;2023-03-23T03:39:46;1.02;;;0.55;;
68196;SDS011;55019;49.382;11.358;2023-03-23T03:42:12;1.42;;;0.70;;
68196;SDS011;55019;49.382;11.358;2023-03-23T03:44:37;2.25;;;0.90;;
68196;SDS011;55019;49.382;11.358;2023-03-23T03:47:03;1.27;;;0.90;;
68196;SDS011;55019;49.382;11.358;2023-03-23T03:49:29;0.82;;;0.60;;
68196;SDS011;55019;49.382;11.358;2023-03-23T03:51:56;1.17;;;1.08;;
68196;SDS011;55019;49.382;11.358;2023-03-23T03:54:34;1.60;;;0.65;;
68196;SDS011;55019;49.382;11.358;2023-03-23T03:57:00;0.70;;;0.70;;
68196;SDS011;55019;49.382;11.358;2023-03-23T03:59:52;1.17;;;0.80;;
68196;SDS011;55019;49.382;11.358;2023-03-23T04:02:56;1.00;;;0.77;;
68196;SDS011;55019;49.382;11.358;2023-03-23T04:08:10;1.17;;;0.60;;
68196;SDS011;55019;49.382;11.358;2023-03-23T04:10:37;0.63;;;0.63;;
68196;SDS011;55019;49.382;11.358;2023-03-23T04:13:03;0.70;;;0.52;;
68196;SDS011;55019;49.382;11.358;2023-03-23T04:15:48;1.15;;;0.70;;
68196;SDS011;55019;49.382;11.358;2023-03-23T04:18:15;0.93;;;0.55;;
68196;SDS011;55019;49.382;11.358;2023-03-23T04:20:44;1.05;;;0.60;;
68196;SDS011;55019;49.382;11.358;2023-03-23T04:23:14;0.60;;;0.50;;
68196;SDS011;55019;49.382;11.358;2023-03-23T04:25:46;0.55;;;0.55;;
68196;SDS011;55019;49.382;11.358;2023-03-23T04:28:12;1.38;;;0.60;;
68196;SDS011;55019;49.382;11.358;2023-03-23T04:30:49;0.93;;;0.73;;
68196;SDS011;55019;49.382;11.358;2023-03-23T04:33:18;1.15;;;0.65;;
68196;SDS011;55019;49.382;11.358;2023-03-23T04:35:46;1.40;;;0.60;;
68196;SDS011;55019;49.382;11.358;2023-03-23T04:38:19;1.40;;;0.88;;
68196;SDS011;55019;49.382;11.358;2023-03-23T04:40:51;1.83;;;0.90;;
68196;SDS011;55019;49.382;11.358;2023-03-23T04:43:35;1.88;;;0.60;;
68196;SDS011;55019;49.382;11.358;2023-03-23T04:46:22;0.45;;;0.45;;
68196;SDS011;55019;49.382;11.358;2023-03-23T04:48:50;1.10;;;0.80;;
68196;SDS011;55019;49.382;11.358;2023-03-23T04:51:20;0.85;;;0.70;;
68196;SDS011;55019;49.382;11.358;2023-03-23T04:53:49;2.00;;;1.00;;
68196;SDS011;55019;49.382;11.358;2023-03-23T04:56:15;0.93;;;0.60;;
68196;SDS011;55019;49.382;11.358;2023-03-23T04:58:44;1.35;;;0.93;;
68196;SDS011;55019;49.382;11.358;2023-03-23T05:04:14;0.93;;;0.65;;
68196;SDS011;55019;49.382;11.358;2023-03-23T05:06:43;1.98;;;0.80;;
68196;SDS011;55019;49.382;11.358;2023-03-23T05:09:15;1.50;;;0.90;;
68196;SDS011;55019;49.382;11.358;2023-03-23T05:11:41;0.82;;;0.57;;
68196;SDS011;55019;49.382;11.358;2023-03-23T05:14:07;2.00;;;0.80;;
68196;SDS011;55019;49.382;11.358;2023-03-23T05:16:33;1.50;;;0.80;;
68196;SDS011;55019;49.382;11.358;2023-03-23T05:19:02;1.77;;;0.90;;
68196;SDS011;55019;49.382;11.358;2023-03-23T05:21:28;1.27;;;0.70;;
68196;SDS011;55019;49.382;11.358;2023-03-23T05:23:56;1.70;;;0.77;;
68196;SDS011;55019;49.382;11.358;2023-03-23T05:26:26;2.03;;;1.00;;
68196;SDS011;55019;49.382;11.358;2023-03-23T05:29:03;2.50;;;0.82;;
68196;SDS011;55019;49.382;11.358;2023-03-23T05:31:39;1.05;;;0.70;;
68196;SDS011;55019;49.382;11.358;2023-03-23T05:34:05;0.93;;;0.77;;
68196;SDS011;55019;49.382;11.358;2023-03-23T05:36:37;2.15;;;1.00;;
68196;SDS011;55019;49.382;11.358;2023-03-23T05:39:13;1.23;;;0.73;;
68196;SDS011;55019;49.382;11.358;2023-03-23T05:42:02;1.02;;;0.75;;
68196;SDS011;55019;49.382;11.358;2023-03-23T05:44:40;1.00;;;0.70;;
68196;SDS011;55019;49.382;11.358;2023-03-23T05:47:07;1.08;;;0.70;;
68196;SDS011;55019;49.382;11.358;2023-03-23T05:49:35;1.58;;;1.00;;
68196;SDS011;55019;49.382;11.358;2023-03-23T05:52:04;1.75;;;0.90;;
68196;SDS011;55019;49.382;11.358;2023-03-23T05:54:29;2.45;;;1.20;;
68196;SDS011;55019;49.382;11.358;2023-03-23T05:56:55;1.30;;;0.80;;
68196;SDS011;55019;49.382;11.358;2023-03-23T05:59:50;2.45;;;1.08;;
68196;SDS011;55019;49.382;11.358;2023-03-23T06:02:21;1.88;;;0.88;;
68196;SDS011;55019;49.382;11.358;2023-03-23T06:04:49;1.50;;;0.95;;
68196;SDS011;55019;49.382;11.358;2023-03-23T06:07:21;1.58;;;0.80;;
68196;SDS011;55019;49.382;11.358;2023-03-23T06:09:56;1.83;;;0.80;;
68196;SDS011;55019;49.382;11.358;2023-03-23T06:12:27;2.17;;;1.13;;
68196;SDS011;55019;49.382;11.358;2023-03-23T06:15:10;1.73;;;1.20;;
68196;SDS011;55019;49.382;11.358;2023-03-23T06:18:06;2.67;;;1.15;;
68196;SDS011;55019;49.382;11.358;2023-03-23T06:20:40;1.48;;;1.15;;
68196;SDS011;55019;49.382;11.358;2023-03-23T06:23:29;1.40;;;0.93;;
68196;SDS011;55019;49.382;11.358;2023-03-23T06:25:57;1.92;;;1.13;;
68196;SDS011;55019;49.382;11.358;2023-03-23T06:28:25;2.97;;;1.45;;
68196;SDS011;55019;49.382;11.358;2023-03-23T06:33:19;1.75;;;1.10;;
68196;SDS011;55019;49.382;11.358;2023-03-23T06:36:20;1.73;;;1.20;;
68196;SDS011;55019;49.382;11.358;2023-03-23T06:38:59;1.20;;;1.10;;
68196;SDS011;55019;49.382;11.358;2023-03-23T06:41:35;1.58;;;1.17;;
68196;SDS011;55019;49.382;11.358;2023-03-23T06:44:01;1.88;;;1.05;;
68196;SDS011;55019;49.382;11.358;2023-03-23T06:46:31;2.80;;;1.45;;
68196;SDS011;55019;49.382;11.358;2023-03-23T06:49:16;2.38;;;1.65;;
68196;SDS011;55019;49.382;11.358;2023-03-23T06:51:49;2.83;;;1.55;;
68196;SDS011;55019;49.382;11.358;2023-03-23T06:54:16;2.13;;;1.55;;
68196;SDS011;55019;49.382;11.358;2023-03-23T06:56:43;1.35;;;1.10;;
68196;SDS011;55019;49.382;11.358;2023-03-23T06:59:09;2.03;;;1.20;;
68196;SDS011;55019;49.382;11.358;2023-03-23T07:01:37;1.58;;;1.10;;
68196;SDS011;55019;49.382;11.358;2023-03-23T07:04:03;3.25;;;1.40;;
68196;SDS011;55019;49.382;11.358;2023-03-23T07:06:38;3.13;;;1.73;;
68196;SDS011;55019;49.382;11.358;2023-03-23T07:09:07;1.55;;;1.20;;
68196;SDS011;55019;49.382;11.358;2023-03-23T07:11:33;2.90;;;1.58;;
68196;SDS011;55019;49.382;11.358;2023-03-23T07:14:04;1.83;;;1.48;;
68196;SDS011;55019;49.382;11.358;2023-03-23T07:16:30;2.33;;;1.70;;
68196;SDS011;55019;49.382;11.358;2023-03-23T07:18:57;3.05;;;1.63;;
68196;SDS011;55019;49.382;11.358;2023-03-23T07:21:23;2.97;;;1.60;;
68196;SDS011;55019;49.382;11.358;2023-03-23T07:23:49;2.85;;;1.58;;
68196;SDS011;55019;49.382;11.358;2023-03-23T07:26:30;4.97;;;1.50;;
68196;SDS011;55019;49.382;11.358;2023-03-23T07:28:58;2.33;;;1.45;;
68196;SDS011;55019;49.382;11.358;2023-03-23T07:31:32;2.20;;;1.55;;
68196;SDS011;55019;49.382;11.358;2023-03-23T07:34:01;2.05;;;1.30;;
68196;SDS011;55019;49.382;11.358;2023-03-23T07:36:38;1.95;;;1.63;;
68196;SDS011;55019;49.382;11.358;2023-03-23T07:39:05;2.58;;;1.60;;
68196;SDS011;55019;49.382;11.358;2023-03-23T07:41:32;2.10;;;1.48;;
68196;SDS011;55019;49.382;11.358;2023-03-23T07:44:02;2.83;;;1.77;;
68196;SDS011;55019;49.382;11.358;2023-03-23T07:46:33;2.85;;;1.55;;
68196;SDS011;55019;49.382;11.358;2023-03-23T07:49:12;2.47;;;1.45;;
68196;SDS011;55019;49.382;11.358;2023-03-23T07:51:46;3.42;;;1.60;;
68196;SDS011;55019;49.382;11.358;2023-03-23T07:54:14;1.77;;;1.30;;
68196;SDS011;55019;49.382;11.358;2023-03-23T07:57:01;1.85;;;1.30;;
68196;SDS011;55019;49.382;11.358;2023-03-23T07:59:30;2.00;;;1.30;;
68196;SDS011;55019;49.382;11.358;2023-03-23T08:01:58;1.58;;;1.20;;
68196;SDS011;55019;49.382;11.358;2023-03-23T08:04:42;2.65;;;1.40;;
68196;SDS011;55019;49.382;11.358;2023-03-23T08:07:28;2.05;;;1.40;;
68196;SDS011;55019;49.382;11.358;2023-03-23T08:10:07;1.80;;;1.40;;
68196;SDS011;55019;49.382;11.358;2023-03-23T08:12:42;1.88;;;1.10;;
68196;SDS011;55019;49.382;11.358;2023-03-23T08:15:09;2.70;;;1.88;;
68196;SDS011;55019;49.382;11.358;2023-03-23T08:17:59;1.95;;;1.38;;
68196;SDS011;55019;49.382;11.358;2023-03-23T08:20:45;3.15;;;1.42;;
68196;SDS011;55019;49.382;11.358;2023-03-23T08:23:36;2.47;;;1.65;;
68196;SDS011;55019;49.382;11.358;2023-03-23T08:26:40;1.45;;;1.20;;
68196;SDS011;55019;49.382;11.358;2023-03-23T08:29:09;4.22;;;1.50;;
68196;SDS011;55019;49.382;11.358;2023-03-23T08:31:50;3.42;;;1.55;;
68196;SDS011;55019;49.382;11.358;2023-03-23T08:34:34;1.35;;;1.23;;
68196;SDS011;55019;49.382;11.358;2023-03-23T08:37:05;1.70;;;1.17;;
68196;SDS011;55019;49.382;11.358;2023-03-23T08:39:55;2.42;;;1.48;;
68196;SDS011;55019;49.382;11.358;2023-03-23T08:42:55;2.45;;;1.30;;
68196;SDS011;55019;49.382;11.358;2023-03-23T08:45:39;2.22;;;1.80;;
68196;SDS011;55019;49.382;11.358;2023-03-23T08:48:14;2.28;;;1.60;;
68196;SDS011;55019;49.382;11.358;2023-03-23T08:51:18;1.40;;;1.30;;
68196;SDS011;55019;49.382;11.358;2023-03-23T08:54:03;4.65;;;1.60;;
68196;SDS011;55019;49.382;11.358;2023-03-23T08:56:47;2.88;;;1.65;;
68196;SDS011;55019;49.382;11.358;2023-03-23T08:59:28;2.00;;;1.50;;
68196;SDS011;55019;49.382;11.358;2023-03-23T09:02:14;2.45;;;1.50;;
68196;SDS011;55019;49.382;11.358;2023-03-23T09:04:51;2.22;;;1.45;;
68196;SDS011;55019;49.382;11.358;2023-03-23T09:07:40;2.72;;;1.60;;
68196;SDS011;55019;49.382;11.358;2023-03-23T09:10:07;3.25;;;1.55;;
68196;SDS011;55019;49.382;11.358;2023-03-23T09:12:34;2.13;;;1.30;;
68196;SDS011;55019;49.382;11.358;2023-03-23T09:15:02;1.58;;;1.40;;
68196;SDS011;55019;49.382;11.358;2023-03-23T09:17:37;1.80;;;1.50;;
68196;SDS011;55019;49.382;11.358;2023-03-23T09:20:05;3.40;;;1.48;;
68196;SDS011;55019;49.382;11.358;2023-03-23T09:22:39;1.80;;;1.38;;
68196;SDS011;55019;49.382;11.358;2023-03-23T09:25:07;1.80;;;1.10;;
68196;SDS011;55019;49.382;11.358;2023-03-23T09:27:34;2.60;;;1.60;;
68196;SDS011;55019;49.382;11.358;2023-03-23T09:30:05;1.50;;;1.20;;
68196;SDS011;55019;49.382;11.358;2023-03-23T09:32:33;2.40;;;1.50;;
68196;SDS011;55019;49.382;11.358;2023-03-23T09:35:00;1.83;;;1.25;;
68196;SDS011;55019;49.382;11.358;2023-03-23T09:37:26;1.60;;;1.35;;
68196;SDS011;55019;49.382;11.358;2023-03-23T09:39:53;2.10;;;1.40;;
68196;SDS011;55019;49.382;11.358;2023-03-23T09:45:06;3.13;;;1.40;;
68196;SDS011;55019;49.382;11.358;2023-03-23T09:50:25;2.85;;;1.60;;
68196;SDS011;55019;49.382;11.358;2023-03-23T09:53:02;2.20;;;1.38;;
68196;SDS011;55019;49.382;11.358;2023-03-23T09:55:35;2.38;;;1.38;;
68196;SDS011;55019;49.382;11.358;2023-03-23T10:00:46;3.42;;;1.50;;
68196;SDS011;55019;49.382;11.358;2023-03-23T10:03:18;2.17;;;1.48;;
68196;SDS011;55019;49.382;11.358;2023-03-23T10:05:48;1.90;;;1.30;;
68196;SDS011;55019;49.382;11.358;2023-03-23T10:08:26;1.40;;;1.25;;
68196;SDS011;55019;49.382;11.358;2023-03-23T10:16:36;2.00;;;1.10;;
68196;SDS011;55019;49.382;11.358;2023-03-23T10:19:24;1.95;;;1.30;;
68196;SDS011;55019;49.382;11.358;2023-03-23T10:21:59;1.35;;;1.25;;
68196;SDS011;55019;49.382;11.358;2023-03-23T10:24:35;3.00;;;1.45;;
68196;SDS011;55019;49.382;11.358;2023-03-23T10:27:26;2.15;;;1.40;;
68196;SDS011;55019;49.382;11.358;2023-03-23T10:32:54;2.25;;;1.10;;
68196;SDS011;55019;49.382;11.358;2023-03-23T10:35:32;3.08;;;1.60;;
68196;SDS011;55019;49.382;11.358;2023-03-23T10:38:52;2.35;;;1.42;;
68196;SDS011;55019;49.382;11.358;2023-03-23T10:41:13;1.85;;;1.08;;
68196;SDS011;55019;49.382;11.358;2023-03-23T10:43:42;1.70;;;1.20;;
68196;SDS011;55019;49.382;11.358;2023-03-23T10:46:17;1.40;;;1.17;;
68196;SDS011;55019;49.382;11.358;2023-03-23T10:48:47;1.67;;;1.42;;
68196;SDS011;55019;49.382;11.358;2023-03-23T10:51:16;2.97;;;1.23;;
68196;SDS011;55019;49.382;11.358;2023-03-23T10:53:49;2.53;;;1.10;;
68196;SDS011;55019;49.382;11.358;2023-03-23T10:56:23;1.73;;;1.15;;
68196;SDS011;55019;49.382;11.358;2023-03-23T11:01:18;2.80;;;1.30;;
68196;SDS011;55019;49.382;11.358;2023-03-23T11:03:46;2.90;;;1.63;;
68196;SDS011;55019;49.382;11.358;2023-03-23T11:08:50;2.75;;;1.08;;
68196;SDS011;55019;49.382;11.358;2023-03-23T11:11:20;1.30;;;1.00;;
68196;SDS011;55019;49.382;11.358;2023-03-23T11:13:56;1.88;;;1.30;;
68196;SDS011;55019;49.382;11.358;2023-03-23T11:16:43;1.15;;;1.05;;
68196;SDS011;55019;49.382;11.358;2023-03-23T11:19:14;1.35;;;1.00;;
68196;SDS011;55019;49.382;11.358;2023-03-23T11:21:45;1.20;;;0.95;;
68196;SDS011;55019;49.382;11.358;2023-03-23T11:24:23;1.33;;;0.82;;
68196;SDS011;55019;49.382;11.358;2023-03-23T11:26:51;1.77;;;0.90;;
68196;SDS011;55019;49.382;11.358;2023-03-23T11:31:53;1.77;;;0.73;;
68196;SDS011;55019;49.382;11.358;2023-03-23T11:34:26;1.55;;;0.80;;
68196;SDS011;55019;49.382;11.358;2023-03-23T11:37:02;0.90;;;0.80;;
68196;SDS011;55019;49.382;11.358;2023-03-23T11:39:33;1.42;;;0.88;;
68196;SDS011;55019;49.382;11.358;2023-03-23T11:42:22;1.58;;;0.82;;
68196;SDS011;55019;49.382;11.358;2023-03-23T11:44:54;1.15;;;0.73;;
68196;SDS011;55019;49.382;11.358;2023-03-23T11:47:40;0.90;;;0.90;;
68196;SDS011;55019;49.382;11.358;2023-03-23T11:58:48;2.45;;;0.82;;
68196;SDS011;55019;49.382;11.358;2023-03-23T12:01:21;4.03;;;1.00;;
68196;SDS011;55019;49.382;11.358;2023-03-23T12:06:35;1.17;;;0.80;;
68196;SDS011;55019;49.382;11.358;2023-03-23T12:11:55;1.08;;;0.60;;
68196;SDS011;55019;49.382;11.358;2023-03-23T12:14:36;2.35;;;1.20;;
68196;SDS011;55019;49.382;11.358;2023-03-23T12:27:55;1.27;;;0.85;;
68196;SDS011;55019;49.382;11.358;2023-03-23T12:36:24;1.50;;;0.70;;
68196;SDS011;55019;49.382;11.358;2023-03-23T12:44:43;1.27;;;1.17;;
68196;SDS011;55019;49.382;11.358;2023-03-23T12:50:07;1.85;;;0.73;;
68196;SDS011;55019;49.382;11.358;2023-03-23T12:58:07;1.75;;;1.00;;
68196;SDS011;55019;49.382;11.358;2023-03-23T13:00:52;1.00;;;0.80;;
68196;SDS011;55019;49.382;11.358;2023-03-23T13:03:53;1.60;;;0.75;;
68196;SDS011;55019;49.382;11.358;2023-03-23T13:08:50;1.45;;;0.70;;
68196;SDS011;55019;49.382;11.358;2023-03-23T13:11:34;0.60;;;0.60;;
68196;SDS011;55019;49.382;11.358;2023-03-23T13:22:36;1.95;;;0.60;;
68196;SDS011;55019;49.382;11.358;2023-03-23T13:25:08;1.30;;;0.88;;
68196;SDS011;55019;49.382;11.358;2023-03-23T13:27:41;1.50;;;0.90;;
68196;SDS011;55019;49.382;11.358;2023-03-23T13:30:17;0.77;;;0.77;;
68196;SDS011;55019;49.382;11.358;2023-03-23T13:32:49;1.23;;;0.90;;
68196;SDS011;55019;49.382;11.358;2023-03-23T13:35:17;2.55;;;0.90;;
68196;SDS011;55019;49.382;11.358;2023-03-23T13:37:48;1.63;;;0.80;;
68196;SDS011;55019;49.382;11.358;2023-03-23T13:43:00;1.00;;;0.85;;
68196;SDS011;55019;49.382;11.358;2023-03-23T13:50:58;2.35;;;0.80;;
68196;SDS011;55019;49.382;11.358;2023-03-23T13:53:30;0.80;;;0.80;;
68196;SDS011;55019;49.382;11.358;2023-03-23T13:58:49;0.80;;;0.80;;
68196;SDS011;55019;49.382;11.358;2023-03-23T14:01:19;1.10;;;0.80;;
68196;SDS011;55019;49.382;11.358;2023-03-23T14:03:58;0.65;;;0.60;;
68196;SDS011;55019;49.382;11.358;2023-03-23T14:06:26;3.17;;;1.13;;
68196;SDS011;55019;49.382;11.358;2023-03-23T14:09:12;1.55;;;0.73;;
68196;SDS011;55019;49.382;11.358;2023-03-23T14:11:48;1.27;;;0.60;;
68196;SDS011;55019;49.382;11.358;2023-03-23T14:14:23;1.00;;;0.60;;
68196;SDS011;55019;49.382;11.358;2023-03-23T14:17:05;1.35;;;0.80;;
68196;SDS011;55019;49.382;11.358;2023-03-23T14:19:41;0.85;;;0.75;;
68196;SDS011;55019;49.382;11.358;2023-03-23T14:22:19;2.40;;;0.88;;
68196;SDS011;55019;49.382;11.358;2023-03-23T14:24:48;1.85;;;0.90;;
68196;SDS011;55019;49.382;11.358;2023-03-23T14:27:18;1.10;;;1.00;;
68196;SDS011;55019;49.382;11.358;2023-03-23T14:29:46;1.15;;;0.82;;
68196;SDS011;55019;49.382;11.358;2023-03-23T14:32:23;1.98;;;0.80;;
68196;SDS011;55019;49.382;11.358;2023-03-23T14:34:51;1.58;;;0.98;;
68196;SDS011;55019;49.382;11.358;2023-03-23T14:37:18;1.75;;;1.00;;
68196;SDS011;55019;49.382;11.358;2023-03-23T14:39:44;1.20;;;0.90;;
68196;SDS011;55019;49.382;11.358;2023-03-23T14:42:17;1.20;;;1.10;;
68196;SDS011;55019;49.382;11.358;2023-03-23T14:44:53;1.17;;;0.85;;
68196;SDS011;55019;49.382;11.358;2023-03-23T14:47:23;0.93;;;0.90;;
68196;SDS011;55019;49.382;11.358;2023-03-23T14:49:56;1.63;;;1.15;;
68196;SDS011;55019;49.382;11.358;2023-03-23T14:52:25;2.58;;;0.98;;
68196;SDS011;55019;49.382;11.358;2023-03-23T14:54:54;1.00;;;0.90;;
68196;SDS011;55019;49.382;11.358;2023-03-23T14:57:32;1.73;;;1.20;;
68196;SDS011;55019;49.382;11.358;2023-03-23T14:59:58;1.00;;;0.80;;
68196;SDS011;55019;49.382;11.358;2023-03-23T15:02:29;2.33;;;1.00;;
68196;SDS011;55019;49.382;11.358;2023-03-23T15:05:00;1.83;;;0.80;;
68196;SDS011;55019;49.382;11.358;2023-03-23T15:07:30;2.33;;;1.05;;
68196;SDS011;55019;49.382;11.358;2023-03-23T15:09:59;3.67;;;1.08;;
68196;SDS011;55019;49.382;11.358;2023-03-23T15:12:26;2.22;;;1.02;;
68196;SDS011;55019;49.382;11.358;2023-03-23T15:14:59;1.38;;;0.80;;
68196;SDS011;55019;49.382;11.358;2023-03-23T15:17:28;0.82;;;0.63;;
68196;SDS011;55019;49.382;11.358;2023-03-23T15:19:56;1.60;;;0.93;;
68196;SDS011;55019;49.382;11.358;2023-03-23T15:24:52;1.40;;;1.00;;
68196;SDS011;55019;49.382;11.358;2023-03-23T15:27:30;2.20;;;1.05;;
68196;SDS011;55019;49.382;11.358;2023-03-23T15:30:00;1.08;;;0.80;;
68196;SDS011;55019;49.382;11.358;2023-03-23T15:32:41;1.55;;;0.82;;
68196;SDS011;55019;49.382;11.358;2023-03-23T15:35:14;1.40;;;1.00;;
68196;SDS011;55019;49.382;11.358;2023-03-23T15:37:43;1.48;;;0.93;;
68196;SDS011;55019;49.382;11.358;2023-03-23T15:40:26;3.28;;;1.65;;
68196;SDS011;55019;49.382;11.358;2023-03-23T15:48:17;2.80;;;2.13;;
68196;SDS011;55019;49.382;11.358;2023-03-23T15:50:43;1.45;;;0.90;;
68196;SDS011;55019;49.382;11.358;2023-03-23T15:53:30;1.50;;;1.00;;
68196;SDS011;55019;49.382;11.358;2023-03-23T15:56:02;1.38;;;0.73;;
68196;SDS011;55019;49.382;11.358;2023-03-23T15:58:30;3.53;;;1.63;;
68196;SDS011;55019;49.382;11.358;2023-03-23T16:00:56;3.55;;;2.03;;
68196;SDS011;55019;49.382;11.358;2023-03-23T16:03:28;6.45;;;3.63;;
68196;SDS011;55019;49.382;11.358;2023-03-23T16:06:04;5.30;;;2.38;;
68196;SDS011;55019;49.382;11.358;2023-03-23T16:08:30;5.63;;;2.55;;
68196;SDS011;55019;49.382;11.358;2023-03-23T16:10:56;2.80;;;1.67;;
68196;SDS011;55019;49.382;11.358;2023-03-23T16:13:22;5.05;;;3.17;;
68196;SDS011;55019;49.382;11.358;2023-03-23T16:15:47;7.50;;;4.60;;
68196;SDS011;55019;49.382;11.358;2023-03-23T16:18:16;6.70;;;4.63;;
68196;SDS011;55019;49.382;11.358;2023-03-23T16:20:44;1.80;;;1.35;;
68196;SDS011;55019;49.382;11.358;2023-03-23T16:23:09;1.67;;;1.05;;
68196;SDS011;55019;49.382;11.358;2023-03-23T16:25:35;1.75;;;1.05;;
68196;SDS011;55019;49.382;11.358;2023-03-23T16:28:01;2.00;;;1.42;;
68196;SDS011;55019;49.382;11.358;2023-03-23T16:30:27;3.95;;;2.50;;
68196;SDS011;55019;49.382;11.358;2023-03-23T16:32:54;6.47;;;3.35;;
68196;SDS011;55019;49.382;11.358;2023-03-23T16:35:21;3.78;;;1.77;;
68196;SDS011;55019;49.382;11.358;2023-03-23T16:37:47;1.60;;;1.30;;
68196;SDS011;55019;49.382;11.358;2023-03-23T16:40:15;3.30;;;1.70;;
68196;SDS011;55019;49.382;11.358;2023-03-23T16:42:42;2.35;;;1.33;;
68196;SDS011;55019;49.382;11.358;2023-03-23T16:45:08;4.05;;;1.80;;
68196;SDS011;55019;49.382;11.358;2023-03-23T16:47:35;5.13;;;2.17;;
68196;SDS011;55019;49.382;11.358;2023-03-23T16:50:01;4.10;;;1.70;;
68196;SDS011;55019;49.382;11.358;2023-03-23T16:52:31;2.60;;;1.77;;
68196;SDS011;55019;49.382;11.358;2023-03-23T16:54:57;5.88;;;2.28;;
68196;SDS011;55019;49.382;11.358;2023-03-23T16:57:23;4.80;;;2.47;;
68196;SDS011;55019;49.382;11.358;2023-03-23T16:59:49;4.50;;;2.65;;
68196;SDS011;55019;49.382;11.358;2023-03-23T17:02:15;5.38;;;3.55;;
68196;SDS011;55019;49.382;11.358;2023-03-23T17:04:46;3.03;;;2.05;;
68196;SDS011;55019;49.382;11.358;2023-03-23T17:07:14;3.03;;;2.00;;
68196;SDS011;55019;49.382;11.358;2023-03-23T17:09:40;4.10;;;2.42;;
68196;SDS011;55019;49.382;11.358;2023-03-23T17:12:09;1.17;;;0.93;;